Time;durP1;ratioP1;P1;durP2;ratioP2;P2;SDS_P1;SDS_P2;PMS_P1;PMS_P2;Temp;Humidity;BMP_temperature;BMP_pressure;BME280_temperature;BME280_humidity;BME280_pressure;Samples;Min_cycle;Max_cycle;Signal;HPM_P1;HPM_P2
2023/02/15 00:01:19;;;;;;;37.43;17.70;;;3.20;99.90;;;;;;5053209;28;20060;-58
2023/02/15 00:03:47;;;;;;;34.47;16.83;;;3.20;99.90;;;;;;5052597;28;20068;-58
2023/02/15 00:06:12;;;;;;;43.47;18.97;;;3.20;99.90;;;;;;5053289;28;20017;-58
2023/02/15 00:08:38;;;;;;;38.83;18.27;;;3.20;99.90;;;;;;5052830;28;20453;-58
2023/02/15 00:11:09;;;;;;;36.13;18.53;;;3.20;99.90;;;;;;5052967;28;20037;-59
2023/02/15 00:13:35;;;;;;;39.77;18.63;;;3.20;99.90;;;;;;5052732;28;20050;-58
2023/02/15 00:16:07;;;;;;;36.20;17.90;;;3.20;99.90;;;;;;5053251;28;20076;-58
2023/02/15 00:18:33;;;;;;;36.33;16.83;;;3.20;99.90;;;;;;5052726;28;20425;-58
2023/02/15 00:21:04;;;;;;;39.67;17.80;;;3.20;99.90;;;;;;5052832;28;20115;-58
2023/02/15 00:23:30;;;;;;;36.57;17.70;;;3.20;99.90;;;;;;5052457;28;20025;-58
2023/02/15 00:26:04;;;;;;;38.40;18.50;;;3.30;99.90;;;;;;5052746;28;20477;-58
2023/02/15 00:28:31;;;;;;;38.33;18.43;;;3.30;99.90;;;;;;5052482;28;20029;-58
2023/02/15 00:31:08;;;;;;;36.43;17.50;;;3.30;99.90;;;;;;5051830;28;20025;-58
2023/02/15 00:33:35;;;;;;;38.17;18.13;;;3.30;99.90;;;;;;5052406;28;20041;-58
2023/02/15 00:36:02;;;;;;;38.27;17.50;;;3.30;99.90;;;;;;5052606;28;20036;-59
2023/02/15 00:38:28;;;;;;;36.47;18.33;;;3.30;99.90;;;;;;5052295;28;20062;-58
2023/02/15 00:40:55;;;;;;;37.20;18.20;;;3.30;99.90;;;;;;5051076;28;20116;-57
2023/02/15 00:43:22;;;;;;;37.53;18.17;;;3.30;99.90;;;;;;5050942;28;20037;-58
2023/02/15 00:45:47;;;;;;;40.30;18.33;;;3.40;99.90;;;;;;5051029;28;20037;-58
2023/02/15 00:48:13;;;;;;;37.13;18.07;;;3.40;99.90;;;;;;5050882;28;20147;-58
2023/02/15 00:50:39;;;;;;;38.97;18.90;;;3.40;99.90;;;;;;5052330;28;20025;-58
2023/02/15 00:53:05;;;;;;;36.40;17.77;;;3.40;99.90;;;;;;5052696;28;20037;-58
2023/02/15 00:55:31;;;;;;;40.47;18.23;;;3.40;99.90;;;;;;5050618;28;20052;-58
2023/02/15 00:57:57;;;;;;;37.13;18.10;;;3.40;99.90;;;;;;5051929;28;20061;-58
2023/02/15 01:00:23;;;;;;;41.90;19.37;;;3.40;99.90;;;;;;5050640;28;20076;-58
2023/02/15 01:02:48;;;;;;;36.97;18.50;;;3.40;99.90;;;;;;5051828;28;20525;-58
2023/02/15 01:05:14;;;;;;;39.27;19.00;;;3.40;99.90;;;;;;5052032;28;20485;-58
2023/02/15 01:07:40;;;;;;;36.67;18.40;;;3.30;99.90;;;;;;5051751;28;20385;-58
2023/02/15 01:10:07;;;;;;;39.00;18.87;;;3.30;99.90;;;;;;5051851;28;20033;-58
2023/02/15 01:12:33;;;;;;;37.80;18.17;;;3.30;99.90;;;;;;5051664;28;20032;-58
2023/02/15 01:14:59;;;;;;;38.67;18.63;;;3.30;99.90;;;;;;5050504;28;20048;-58
2023/02/15 01:17:25;;;;;;;40.80;19.03;;;3.30;99.90;;;;;;5051592;28;20494;-58
2023/02/15 01:19:51;;;;;;;40.00;18.93;;;3.30;99.90;;;;;;5050491;28;20464;-58
2023/02/15 01:22:19;;;;;;;41.17;18.90;;;3.30;99.90;;;;;;5051597;28;20056;-58
2023/02/15 01:24:45;;;;;;;39.97;18.77;;;3.20;99.90;;;;;;5050027;28;20037;-58
2023/02/15 01:27:10;;;;;;;39.27;19.23;;;3.20;99.90;;;;;;5051402;28;20043;-58
2023/02/15 01:29:36;;;;;;;40.00;19.27;;;3.20;99.90;;;;;;5050191;28;20252;-57
2023/02/15 01:32:02;;;;;;;43.43;20.07;;;3.20;99.90;;;;;;5051528;28;20028;-57
2023/02/15 01:34:29;;;;;;;40.43;19.47;;;3.20;99.90;;;;;;5051365;28;20071;-58
2023/02/15 01:36:56;;;;;;;36.80;18.00;;;3.20;99.90;;;;;;5051718;28;20051;-58
2023/02/15 01:39:22;;;;;;;40.20;19.43;;;3.20;99.90;;;;;;5051240;28;20032;-59
2023/02/15 01:41:50;;;;;;;38.27;19.90;;;3.20;99.90;;;;;;5049835;28;20116;-57
2023/02/15 01:44:47;;;;;;;39.33;19.53;;;3.10;99.90;;;;;;5049645;28;20388;-59
2023/02/15 01:47:22;;;;;;;39.63;19.13;;;3.10;99.90;;;;;;5051067;28;20044;-58
2023/02/15 01:49:53;;;;;;;39.70;18.73;;;3.10;99.90;;;;;;5051133;28;20029;-58
2023/02/15 01:52:19;;;;;;;40.67;18.17;;;3.10;99.90;;;;;;5051233;28;20056;-58
2023/02/15 01:54:47;;;;;;;39.70;18.57;;;3.10;99.90;;;;;;5050940;28;20068;-58
2023/02/15 01:57:19;;;;;;;42.63;18.57;;;3.00;99.90;;;;;;5050973;28;20025;-58
2023/02/15 01:59:51;;;;;;;39.00;18.97;;;3.00;99.90;;;;;;5049683;28;20049;-58
2023/02/15 02:02:20;;;;;;;37.17;19.30;;;3.00;99.90;;;;;;5050756;28;20048;-58
2023/02/15 02:04:48;;;;;;;38.35;19.10;;;2.90;99.90;;;;;;5049461;28;20102;-57
2023/02/15 02:07:20;;;;;;;41.27;19.50;;;2.90;99.90;;;;;;5049307;28;20033;-57
2023/02/15 02:09:46;;;;;;;40.63;19.67;;;2.90;99.90;;;;;;5051021;28;20294;-58
2023/02/15 02:12:13;;;;;;;39.17;18.73;;;2.80;99.90;;;;;;5049604;28;20063;-58
2023/02/15 02:14:40;;;;;;;37.77;18.13;;;2.80;99.90;;;;;;5050679;28;20047;-58
2023/02/15 02:17:28;;;;;;;38.80;19.10;;;2.70;99.90;;;;;;5051082;28;20028;-58
2023/02/15 02:20:12;;;;;;;42.10;19.37;;;2.70;99.90;;;;;;5050873;28;20025;-58
2023/02/15 02:23:01;;;;;;;39.83;19.13;;;2.60;99.90;;;;;;5050680;28;20039;-58
2023/02/15 02:25:37;;;;;;;;;;;2.60;99.90;;;;;;5049895;28;20043;-58
2023/02/15 02:28:34;;;;;;;41.07;19.17;;;2.50;99.90;;;;;;5050594;28;19908;-58
2023/02/15 02:31:19;;;;;;;38.27;18.93;;;2.60;99.90;;;;;;5050982;28;20428;-58
2023/02/15 02:33:51;;;;;;;43.53;20.57;;;2.50;99.90;;;;;;5050489;28;20031;-58
2023/02/15 02:36:20;;;;;;;43.00;19.93;;;2.50;99.90;;;;;;5050631;28;20037;-58
2023/02/15 02:39:02;;;;;;;47.17;20.20;;;2.50;99.90;;;;;;5050696;28;20102;-58
2023/02/15 02:41:34;;;;;;;41.33;20.07;;;2.50;99.90;;;;;;5049408;28;20037;-58
2023/02/15 02:44:12;;;;;;;44.17;19.93;;;2.50;99.90;;;;;;5050198;28;20098;-57
2023/02/15 02:46:52;;;;;;;43.23;20.03;;;2.50;99.90;;;;;;5050543;28;20497;-58
2023/02/15 02:49:34;;;;;;;47.77;20.97;;;2.50;99.90;;;;;;5049362;28;20029;-58
2023/02/15 02:52:03;;;;;;;44.63;20.10;;;2.40;99.90;;;;;;5049350;28;20098;-58
2023/02/15 02:54:30;;;;;;;48.78;21.33;;;2.40;99.90;;;;;;5053368;28;20496;-57
2023/02/15 02:57:00;;;;;;;41.43;19.97;;;2.40;99.90;;;;;;5053305;28;20569;-58
2023/02/15 02:59:32;;;;;;;44.57;20.13;;;2.40;99.90;;;;;;5053645;28;20052;-57
2023/02/15 03:02:13;;;;;;;45.80;20.40;;;2.40;99.90;;;;;;5054514;28;20080;-57
2023/02/15 03:04:43;;;;;;;45.20;20.47;;;2.40;99.90;;;;;;5054408;28;20061;-57
2023/02/15 03:07:15;;;;;;;46.67;20.60;;;2.40;99.90;;;;;;5053233;28;20059;-58
2023/02/15 03:09:47;;;;;;;43.37;20.23;;;2.30;99.90;;;;;;5053401;28;20123;-57
2023/02/15 03:12:16;;;;;;;42.63;19.73;;;2.40;99.90;;;;;;5054859;28;20029;-58
2023/02/15 03:14:48;;;;;;;44.90;20.43;;;2.40;99.90;;;;;;5052990;28;20138;-59
2023/02/15 03:17:18;;;;;;;45.50;20.40;;;2.30;99.90;;;;;;5053020;28;20040;-58
2023/02/15 03:19:47;;;;;;;44.92;20.75;;;2.30;99.90;;;;;;5054342;28;20122;-57
2023/02/15 03:22:30;;;;;;;45.57;20.93;;;2.30;99.90;;;;;;5054358;28;20110;-57
2023/02/15 03:25:27;;;;;;;47.97;20.63;;;2.30;99.90;;;;;;5052862;28;20075;-57
2023/02/15 03:27:58;;;;;;;44.83;21.30;;;2.30;99.90;;;;;;5035224;28;20032;-57
2023/02/15 03:30:24;;;;;;;48.27;21.53;;;2.30;99.90;;;;;;5052807;28;20550;-58
2023/02/15 03:32:51;;;;;;;46.23;21.07;;;2.30;99.90;;;;;;5054188;28;20393;-58
2023/02/15 03:35:21;;;;;;;47.30;22.27;;;2.30;99.90;;;;;;5054322;28;20033;-58
2023/02/15 03:37:51;;;;;;;45.40;21.80;;;2.20;99.90;;;;;;5053602;28;20044;-58
2023/02/15 03:43:12;;;;;;;50.47;22.13;;;2.20;99.90;;;;;;5053786;28;20044;-58
2023/02/15 03:45:54;;;;;;;48.80;23.07;;;2.20;99.90;;;;;;5053875;28;20029;-59
2023/02/15 03:48:46;;;;;;;47.60;22.03;;;2.20;99.90;;;;;;5053826;28;20033;-58
2023/02/15 03:51:34;;;;;;;46.10;20.80;;;2.20;99.90;;;;;;5053956;28;20025;-58
2023/02/15 04:03:15;;;;;;;43.97;20.77;;;2.10;99.90;;;;;;5070078;22;20108;-52
2023/02/15 04:05:42;;;;;;;47.30;21.83;;;2.10;99.90;;;;;;5050988;28;20051;-54
2023/02/15 04:08:09;;;;;;;44.33;20.67;;;2.10;99.90;;;;;;5053218;28;20048;-51
2023/02/15 04:10:55;;;;;;;45.17;21.17;;;2.10;99.90;;;;;;5053181;28;20029;-53
2023/02/15 04:13:31;;;;;;;47.97;22.17;;;2.10;99.90;;;;;;5052815;28;20406;-54
2023/02/15 04:16:03;;;;;;;47.10;21.73;;;2.10;99.90;;;;;;5053061;28;20040;-52
2023/02/15 04:26:59;;;;;;;47.90;22.10;;;2.00;99.90;;;;;;5052773;28;20440;-54
2023/02/15 04:29:26;;;;;;;53.43;23.17;;;2.00;99.90;;;;;;5052705;28;20379;-55
2023/02/15 04:31:53;;;;;;;53.93;23.73;;;2.10;99.90;;;;;;5052693;28;20021;-55
2023/02/15 04:34:19;;;;;;;49.40;22.53;;;2.10;99.90;;;;;;5052363;28;20123;-55
2023/02/15 04:36:45;;;;;;;51.20;23.33;;;2.00;99.90;;;;;;5052463;28;20537;-54
2023/02/15 04:39:14;;;;;;;52.53;22.43;;;2.00;99.90;;;;;;5052600;28;20029;-56
2023/02/15 04:41:40;;;;;;;47.58;21.75;;;2.00;99.90;;;;;;5052633;28;20029;-50
2023/02/15 04:44:06;;;;;;;52.70;23.10;;;2.00;99.90;;;;;;5052280;28;20029;-56
2023/02/15 04:46:32;;;;;;;47.70;22.37;;;2.00;99.90;;;;;;5052184;28;20021;-52
2023/02/15 04:48:57;;;;;;;48.23;21.93;;;2.00;99.90;;;;;;5052374;28;20390;-54
2023/02/15 04:51:23;;;;;;;48.83;22.87;;;2.00;99.90;;;;;;5052462;28;20045;-56
2023/02/15 04:53:49;;;;;;;49.37;23.07;;;2.00;99.90;;;;;;5051037;28;20432;-55
2023/02/15 04:56:15;;;;;;;51.87;23.27;;;2.00;99.90;;;;;;5052379;28;20108;-57
2023/02/15 04:58:41;;;;;;;48.90;21.93;;;2.00;99.90;;;;;;5052702;28;20037;-53
2023/02/15 05:01:07;;;;;;;53.70;23.77;;;2.00;99.90;;;;;;5052449;28;20032;-56
2023/02/15 05:03:34;;;;;;;53.87;23.93;;;1.90;99.90;;;;;;5051749;28;20463;-54
2023/02/15 05:05:59;;;;;;;50.90;22.50;;;1.90;99.90;;;;;;5052100;28;20083;-53
2023/02/15 05:08:25;;;;;;;50.83;24.03;;;1.90;99.90;;;;;;5051859;28;20021;-53
2023/02/15 05:10:51;;;;;;;47.50;22.47;;;1.90;99.90;;;;;;5051928;28;20029;-55
2023/02/15 05:13:17;;;;;;;51.60;22.83;;;1.90;99.90;;;;;;5052046;28;20025;-53
2023/02/15 05:15:48;;;;;;;47.93;22.00;;;1.90;99.90;;;;;;5051667;28;20513;-54
2023/02/15 05:18:15;;;;;;;52.47;22.97;;;1.90;99.90;;;;;;5051907;28;20086;-53
2023/02/15 05:20:41;;;;;;;53.67;25.00;;;1.90;99.90;;;;;;5052116;28;20706;-53
2023/02/15 05:23:06;;;;;;;50.33;23.27;;;1.90;99.90;;;;;;5050393;28;20025;-52
2023/02/15 05:28:19;;;;;;;54.67;23.40;;;1.90;99.90;;;;;;5051400;28;20124;-53
2023/02/15 05:31:09;;;;;;;52.17;23.10;;;1.80;99.90;;;;;;5051611;28;20021;-54
2023/02/15 05:33:35;;;;;;;49.93;22.97;;;1.90;99.90;;;;;;5051313;28;20492;-51
2023/02/15 05:36:02;;;;;;;52.57;23.17;;;1.90;99.90;;;;;;5051485;28;20041;-54
2023/02/15 05:38:28;;;;;;;52.60;24.07;;;1.90;99.90;;;;;;5051224;28;20065;-54
2023/02/15 05:40:54;;;;;;;51.27;22.77;;;1.90;99.90;;;;;;5051700;28;20110;-53
2023/02/15 05:43:20;;;;;;;48.67;23.37;;;1.90;99.90;;;;;;5051270;28;20459;-52
2023/02/15 05:45:48;;;;;;;48.13;22.97;;;2.00;99.90;;;;;;5051419;28;20029;-53
2023/02/15 05:48:14;;;;;;;49.53;21.87;;;2.00;99.90;;;;;;5051194;28;20037;-52
2023/02/15 05:50:40;;;;;;;49.67;21.43;;;2.00;99.90;;;;;;5051203;28;20032;-52
2023/02/15 05:53:06;;;;;;;54.23;23.33;;;2.00;99.90;;;;;;5051105;28;20648;-52
2023/02/15 05:55:32;;;;;;;52.80;23.77;;;2.00;99.90;;;;;;5050890;28;20079;-54
2023/02/15 05:57:57;;;;;;;48.13;23.00;;;2.00;99.90;;;;;;5051005;28;20029;-52
2023/02/15 06:00:24;;;;;;;50.37;22.17;;;2.00;99.90;;;;;;5051026;28;20025;-52
2023/02/15 06:02:49;;;;;;;48.23;22.13;;;2.00;99.90;;;;;;5050842;28;20099;-54
2023/02/15 06:05:15;;;;;;;48.37;22.70;;;2.00;99.90;;;;;;5050664;28;20499;-55
2023/02/15 06:07:44;;;;;;;52.17;22.50;;;2.00;99.90;;;;;;5050664;28;20277;-52
2023/02/15 06:10:10;;;;;;;49.83;22.65;;;2.00;99.90;;;;;;5050978;28;20378;-54
2023/02/15 06:12:36;;;;;;;52.27;22.30;;;2.00;99.90;;;;;;5050928;28;20067;-54
2023/02/15 06:15:03;;;;;;;50.67;22.80;;;2.00;99.90;;;;;;5050634;28;20497;-54
2023/02/15 06:17:29;;;;;;;52.63;22.20;;;2.00;99.90;;;;;;5050691;28;20401;-55
2023/02/15 06:19:54;;;;;;;47.10;22.27;;;2.00;99.90;;;;;;5050689;28;20032;-54
2023/02/15 06:22:20;;;;;;;46.93;21.73;;;2.00;99.90;;;;;;5050579;28;20037;-52
2023/02/15 06:24:46;;;;;;;47.20;22.30;;;2.10;99.90;;;;;;5050296;28;20036;-55
2023/02/15 06:27:12;;;;;;;47.77;22.43;;;2.10;99.90;;;;;;5050216;28;20051;-50
2023/02/15 06:29:38;;;;;;;47.03;22.43;;;2.10;99.90;;;;;;5050074;28;20517;-51
2023/02/15 06:32:04;;;;;;;66.27;28.97;;;2.10;99.90;;;;;;5050443;28;20033;-53
2023/02/15 06:34:30;;;;;;;49.50;22.93;;;2.20;99.90;;;;;;5050233;28;20033;-54
2023/02/15 06:36:56;;;;;;;47.77;21.93;;;2.30;99.90;;;;;;5050149;28;20033;-53
2023/02/15 06:39:22;;;;;;;51.47;22.80;;;2.30;99.90;;;;;;5050416;28;20485;-52
2023/02/15 06:41:48;;;;;;;51.27;23.37;;;2.30;99.90;;;;;;5050654;28;20060;-52
2023/02/15 06:44:13;;;;;;;42.70;20.90;;;2.30;99.90;;;;;;5049988;28;20116;-54
2023/02/15 06:46:39;;;;;;;48.67;21.83;;;2.30;99.90;;;;;;5050074;28;20113;-52
2023/02/15 06:49:05;;;;;;;49.47;22.00;;;2.30;99.90;;;;;;5050130;28;20051;-52
2023/02/15 06:51:31;;;;;;;47.00;21.93;;;2.30;99.90;;;;;;5050062;28;20336;-53
2023/02/15 06:53:56;;;;;;;49.50;22.47;;;2.30;99.90;;;;;;5048545;28;20029;-50
2023/02/15 06:56:22;;;;;;;45.07;21.70;;;2.30;99.90;;;;;;5050075;28;20083;-52
2023/02/15 06:58:52;;;;;;;49.47;22.23;;;2.30;99.90;;;;;;5050034;28;20044;-51
2023/02/15 07:01:18;;;;;;;43.87;20.47;;;2.30;99.90;;;;;;5050100;28;20067;-53
2023/02/15 07:03:44;;;;;;;49.53;22.57;;;2.30;99.90;;;;;;5049677;28;20048;-50
2023/02/15 07:06:11;;;;;;;47.67;22.37;;;2.30;99.90;;;;;;5049885;28;20039;-54
2023/02/15 07:08:37;;;;;;;45.03;21.33;;;2.30;99.90;;;;;;5049809;28;20362;-49
2023/02/15 07:13:49;;;;;;;47.33;22.10;;;2.20;99.90;;;;;;5049814;28;20044;-52
2023/02/15 07:16:15;;;;;;;47.17;20.27;;;2.20;99.90;;;;;;5049983;28;20034;-54
2023/02/15 07:18:41;;;;;;;47.60;20.87;;;2.20;99.90;;;;;;5049720;28;20112;-53
2023/02/15 07:21:07;;;;;;;48.30;21.30;;;2.30;99.90;;;;;;5049939;28;20037;-51
2023/02/15 07:23:37;;;;;;;47.57;21.17;;;2.30;99.90;;;;;;5049610;28;20025;-54
2023/02/15 07:26:04;;;;;;;45.83;21.37;;;2.40;99.90;;;;;;5049947;28;20545;-50
2023/02/15 07:28:30;;;;;;;46.53;20.37;;;2.40;99.90;;;;;;5049727;28;20017;-54
2023/02/15 07:30:57;;;;;;;46.00;20.77;;;2.40;99.90;;;;;;5049895;28;20523;-52
2023/02/15 07:33:23;;;;;;;51.33;21.63;;;2.50;99.90;;;;;;5049508;28;20120;-54
2023/02/15 07:35:54;;;;;;;42.97;19.97;;;2.50;99.90;;;;;;5049790;28;20037;-52
2023/02/15 07:38:21;;;;;;;42.93;20.33;;;2.50;99.90;;;;;;5049630;28;20028;-54
2023/02/15 07:40:47;;;;;;;39.90;19.27;;;2.60;99.90;;;;;;5052898;28;20029;-51
2023/02/15 07:43:13;;;;;;;43.43;20.27;;;2.70;99.90;;;;;;5053432;28;20435;-54
2023/02/15 07:45:39;;;;;;;44.50;19.97;;;2.80;99.90;;;;;;5053228;28;20040;-54
2023/02/15 07:48:06;;;;;;;45.03;20.33;;;2.80;99.90;;;;;;5053222;28;20048;-54
2023/02/15 07:50:32;;;;;;;55.87;20.67;;;2.90;99.90;;;;;;5053347;28;20090;-53
2023/02/15 07:52:58;;;;;;;42.17;18.10;;;2.90;99.90;;;;;;5053268;28;20084;-52
2023/02/15 07:55:24;;;;;;;40.13;19.20;;;3.00;99.90;;;;;;5053043;28;20032;-52
2023/02/15 07:57:50;;;;;;;39.10;18.47;;;3.20;99.90;;;;;;5053177;28;20111;-53
2023/02/15 08:00:19;;;;;;;36.43;18.70;;;3.30;99.90;;;;;;5053254;28;20032;-53
2023/02/15 08:03:12;;;;;;;41.17;19.73;;;3.40;99.90;;;;;;5053043;28;20128;-55
2023/02/15 08:05:35;;;;;;;43.97;17.97;;;3.40;99.90;;;;;;5052923;28;20509;-52
2023/02/15 08:08:01;;;;;;;35.47;17.67;;;3.50;99.90;;;;;;5053027;28;20482;-53
2023/02/15 08:11:24;;;;;;;37.37;18.40;;;3.60;99.90;;;;;;5052959;28;20087;-54
2023/02/15 08:13:13;;;;;;;35.13;17.60;;;3.70;99.90;;;;;;5052883;28;20025;-54
2023/02/15 08:15:38;;;;;;;35.70;17.60;;;3.90;99.90;;;;;;5052835;28;20386;-53
2023/02/15 08:18:04;;;;;;;37.03;17.63;;;4.10;99.90;;;;;;5052626;28;20033;-55
2023/02/15 08:20:30;;;;;;;36.10;17.57;;;4.30;99.90;;;;;;5051545;28;20108;-54
2023/02/15 08:22:56;;;;;;;31.90;16.17;;;4.50;99.90;;;;;;5052796;28;20029;-51
2023/02/15 08:25:22;;;;;;;31.80;16.30;;;4.80;99.90;;;;;;5052917;28;20059;-53
2023/02/15 08:27:50;;;;;;;32.20;16.40;;;4.90;99.90;;;;;;5052550;28;20043;-55
2023/02/15 08:30:16;;;;;;;30.23;16.30;;;5.10;99.90;;;;;;5052647;28;20021;-54
2023/02/15 08:32:41;;;;;;;31.40;14.87;;;5.20;99.90;;;;;;5052624;28;20033;-54
2023/02/15 08:35:07;;;;;;;30.93;15.23;;;5.20;99.90;;;;;;5052394;28;20029;-55
2023/02/15 08:37:33;;;;;;;24.50;12.10;;;5.20;99.90;;;;;;5052223;28;20033;-54
2023/02/15 08:39:59;;;;;;;31.17;15.60;;;5.20;99.90;;;;;;5052905;28;20021;-50
2023/02/15 08:42:24;;;;;;;29.27;15.20;;;5.20;99.90;;;;;;5052312;28;20036;-56
2023/02/15 08:44:51;;;;;;;31.63;16.00;;;5.30;99.90;;;;;;5050871;28;20036;-53
2023/02/15 08:47:17;;;;;;;34.23;15.80;;;5.40;99.90;;;;;;5052521;28;20381;-52
2023/02/15 08:49:42;;;;;;;30.63;15.90;;;5.60;99.90;;;;;;5052284;28;20039;-53
2023/02/15 08:52:08;;;;;;;30.37;15.80;;;5.70;99.90;;;;;;5051496;28;20037;-53
2023/02/15 08:54:34;;;;;;;28.03;15.07;;;6.00;99.90;;;;;;5051824;28;20041;-54
2023/02/15 08:56:59;;;;;;;29.00;15.13;;;6.20;99.90;;;;;;5052064;28;20067;-53
2023/02/15 08:59:26;;;;;;;30.07;15.70;;;6.40;99.90;;;;;;5052041;28;20467;-53
2023/02/15 09:01:52;;;;;;;28.67;14.20;;;6.60;99.90;;;;;;5052165;28;20095;-53
2023/02/15 09:04:20;;;;;;;46.73;23.53;;;6.80;99.90;;;;;;5051540;28;20037;-53
2023/02/15 09:06:47;;;;;;;29.73;14.53;;;7.00;99.90;;;;;;5051838;28;20054;-51
2023/02/15 09:09:13;;;;;;;27.47;14.50;;;7.30;99.90;;;;;;5051734;28;20040;-54
2023/02/15 09:11:41;;;;;;;25.57;13.07;;;7.50;99.90;;;;;;5052234;28;20033;-51
2023/02/15 09:14:13;;;;;;;25.05;14.02;;;7.80;99.90;;;;;;5051679;28;20412;-55
2023/02/15 09:16:40;;;;;;;26.10;14.13;;;7.90;99.90;;;;;;5051756;28;20036;-52
2023/02/15 09:19:06;;;;;;;26.33;13.97;;;8.20;99.90;;;;;;5051634;28;20033;-52
2023/02/15 09:21:34;;;;;;;26.90;14.30;;;8.40;99.90;;;;;;5051536;28;20043;-52
2023/02/15 09:24:03;;;;;;;26.83;14.47;;;8.60;99.90;;;;;;5051383;28;20094;-55
2023/02/15 09:26:30;;;;;;;24.33;13.90;;;8.60;99.90;;;;;;5051397;28;20086;-53
2023/02/15 09:28:59;;;;;;;21.67;12.87;;;9.00;99.90;;;;;;5051538;28;20481;-53
2023/02/15 09:31:27;;;;;;;22.75;13.13;;;9.50;99.90;;;;;;5051541;28;20033;-51
2023/02/15 09:33:53;;;;;;;25.67;14.27;;;10.00;99.90;;;;;;5051232;28;20071;-53
2023/02/15 09:36:24;;;;;;;22.53;13.87;;;10.50;99.90;;;;;;5051036;28;20474;-52
2023/02/15 09:39:05;;;;;;;23.23;13.17;;;10.90;98.20;;;;;;5051340;28;20568;-54
2023/02/15 09:41:43;;;;;;;23.90;13.67;;;11.30;98.30;;;;;;5051669;28;20111;-53
2023/02/15 09:44:36;;;;;;;22.98;13.30;;;11.80;96.30;;;;;;5051059;28;20389;-54
2023/02/15 09:47:20;;;;;;;23.70;13.90;;;12.40;95.10;;;;;;5051486;28;20421;-55
2023/02/15 09:50:03;;;;;;;22.60;13.55;;;12.50;95.60;;;;;;5051137;28;20025;-56
2023/02/15 09:52:35;;;;;;;21.40;13.43;;;12.90;93.70;;;;;;5049871;28;20036;-54
2023/02/15 09:55:21;;;;;;;20.75;12.88;;;13.40;92.80;;;;;;5050799;28;20457;-54
2023/02/15 09:58:10;;;;;;;22.30;13.88;;;14.10;90.80;;;;;;5050898;28;20033;-54
2023/02/15 10:00:35;;;;;;;20.55;13.30;;;14.20;90.00;;;;;;5050753;28;20037;-54
2023/02/15 10:03:07;;;;;;;20.98;12.80;;;14.10;89.50;;;;;;5065757;22;20120;-55
2023/02/15 10:06:05;;;;;;;21.60;13.75;;;14.70;87.40;;;;;;5028902;28;20494;-56
2023/02/15 10:08:36;;;;;;;20.97;14.20;;;15.20;84.20;;;;;;5030630;28;20029;-58
2023/02/15 10:14:37;;;;;;;23.20;13.38;;;15.90;82.80;;;;;;5030604;28;20470;-58
2023/02/15 10:17:37;;;;;;;19.85;13.13;;;16.90;77.60;;;;;;5030589;28;20516;-57
2023/02/15 10:20:30;;;;;;;18.13;12.77;;;17.50;72.90;;;;;;5030615;28;20441;-57
2023/02/15 10:23:21;;;;;;;18.77;12.38;;;16.90;72.30;;;;;;5030667;28;20045;-57
2023/02/15 10:25:58;;;;;;;20.02;13.13;;;17.40;70.70;;;;;;5030877;28;20034;-57
2023/02/15 10:28:28;;;;;;;18.65;13.02;;;17.30;69.50;;;;;;5030829;28;20029;-57
2023/02/15 10:31:13;;;;;;;20.08;13.30;;;17.10;68.70;;;;;;5030779;28;20029;-57
2023/02/15 10:33:41;;;;;;;18.40;12.73;;;17.10;68.30;;;;;;5030314;28;20033;-56
2023/02/15 10:36:41;;;;;;;16.58;12.35;;;16.40;70.30;;;;;;5030541;28;20379;-56
2023/02/15 10:39:36;;;;;;;18.75;12.65;;;16.80;69.50;;;;;;5030555;28;20029;-57
2023/02/15 10:42:28;;;;;;;20.55;12.80;;;16.70;69.60;;;;;;5030681;28;20375;-57
2023/02/15 10:45:21;;;;;;;18.95;12.82;;;17.50;67.30;;;;;;5029920;28;20108;-57
2023/02/15 10:47:53;;;;;;;18.70;12.90;;;18.00;65.30;;;;;;5030227;28;20037;-54
2023/02/15 10:50:21;;;;;;;16.77;12.23;;;18.10;64.00;;;;;;5029913;28;20084;-56
2023/02/15 10:52:55;;;;;;;16.65;12.15;;;18.70;63.00;;;;;;5030329;28;20076;-57
2023/02/15 10:55:41;;;;;;;19.85;12.23;;;18.70;62.20;;;;;;5030132;28;20038;-57
2023/02/15 10:58:25;;;;;;;17.20;12.27;;;18.90;61.90;;;;;;5030275;28;20033;-57
2023/02/15 11:01:07;;;;;;;17.45;12.20;;;18.60;62.10;;;;;;5030326;28;20029;-57
2023/02/15 11:04:06;;;;;;;20.00;13.50;;;18.60;62.20;;;;;;5029892;28;20488;-57
2023/02/15 11:06:34;;;;;;;18.98;12.68;;;18.40;61.60;;;;;;5030339;28;20033;-57
2023/02/15 11:09:08;;;;;;;18.45;12.20;;;18.30;62.60;;;;;;5030323;28;20026;-57
2023/02/15 11:11:40;;;;;;;17.25;12.75;;;18.10;62.10;;;;;;5030251;28;20033;-57
2023/02/15 11:14:31;;;;;;;16.80;12.55;;;18.00;62.10;;;;;;5030435;28;20025;-57
2023/02/15 11:17:04;;;;;;;17.35;12.23;;;19.00;61.30;;;;;;5034088;28;20040;-58
2023/02/15 11:19:37;;;;;;;16.92;12.57;;;19.20;60.70;;;;;;5034047;28;20044;-57
2023/02/15 11:22:05;;;;;;;18.27;12.13;;;19.60;59.60;;;;;;5034047;28;20034;-57
2023/02/15 11:24:40;;;;;;;19.08;12.48;;;19.60;58.80;;;;;;5033651;28;20045;-57
2023/02/15 11:27:20;;;;;;;20.30;12.85;;;19.40;58.60;;;;;;5033789;28;20080;-55
2023/02/15 11:30:10;;;;;;;17.25;12.45;;;18.40;60.60;;;;;;5033920;28;20053;-57
2023/02/15 11:32:45;;;;;;;20.67;13.45;;;18.30;60.80;;;;;;5033871;28;20029;-57
2023/02/15 11:35:14;;;;;;;18.38;12.50;;;17.90;62.20;;;;;;5033675;28;20458;-57
2023/02/15 11:37:45;;;;;;;17.80;12.23;;;18.40;59.90;;;;;;5033505;28;20034;-57
2023/02/15 11:40:20;;;;;;;18.50;11.98;;;19.10;59.40;;;;;;5033721;28;20552;-56
2023/02/15 11:42:49;;;;;;;17.02;12.38;;;19.20;59.00;;;;;;5033452;28;20108;-56
2023/02/15 11:45:21;;;;;;;20.85;12.75;;;19.00;59.70;;;;;;5033408;28;20402;-56
2023/02/15 11:47:46;;;;;;;18.40;12.68;;;19.50;58.00;;;;;;5033382;28;20087;-57
2023/02/15 11:50:22;;;;;;;17.15;12.38;;;19.50;57.80;;;;;;5033598;28;20025;-56
2023/02/15 11:52:52;;;;;;;19.33;12.00;;;19.60;57.50;;;;;;5022814;28;20455;-56
2023/02/15 11:55:22;;;;;;;17.08;11.50;;;18.70;59.00;;;;;;5012847;28;20026;-57
2023/02/15 11:58:25;;;;;;;17.95;12.02;;;18.30;59.60;;;;;;5011757;28;20084;-56
2023/02/15 12:00:58;;;;;;;17.92;12.32;;;18.00;61.50;;;;;;5027247;28;20033;-58
2023/02/15 12:03:39;;;;;;;18.17;12.00;;;17.40;61.50;;;;;;5019440;28;20095;-53
2023/02/15 12:06:11;;;;;;;18.90;12.32;;;17.40;61.80;;;;;;5014922;28;20025;-56
2023/02/15 12:08:40;;;;;;;19.52;11.57;;;17.90;61.10;;;;;;5022627;28;20038;-54
2023/02/15 12:11:17;;;;;;;;;;;17.80;60.30;;;;;;5029953;28;20021;-57
2023/02/15 12:14:01;;;;;;;18.20;11.23;;;17.70;60.50;;;;;;5013840;28;19941;-56
2023/02/15 12:16:31;;;;;;;18.42;11.38;;;18.20;59.50;;;;;;5015995;28;20041;-55
2023/02/15 12:18:59;;;;;;;16.98;10.82;;;18.20;59.50;;;;;;5013008;28;20354;-57
2023/02/15 12:21:29;;;;;;;16.90;10.40;;;18.50;59.60;;;;;;5013149;28;20030;-55
2023/02/15 12:24:03;;;;;;;15.05;10.20;;;19.10;59.00;;;;;;5012810;28;20522;-55
2023/02/15 12:26:38;;;;;;;17.33;10.75;;;18.80;58.30;;;;;;5011765;28;20101;-56
2023/02/15 12:29:21;;;;;;;18.02;11.57;;;18.20;59.30;;;;;;5013108;28;20037;-55
2023/02/15 12:31:51;;;;;;;17.73;10.85;;;18.30;59.30;;;;;;5012970;28;20034;-55
2023/02/15 12:34:22;;;;;;;17.02;11.10;;;18.10;60.20;;;;;;5012776;28;20041;-54
2023/02/15 12:36:54;;;;;;;30.35;19.98;;;18.30;60.20;;;;;;5012759;28;20044;-53
2023/02/15 12:39:28;;;;;;;18.75;12.38;;;19.10;58.80;;;;;;5012951;28;20053;-54
2023/02/15 12:41:54;;;;;;;21.15;11.25;;;19.50;57.40;;;;;;5012761;28;20030;-54
2023/02/15 12:44:26;;;;;;;18.52;11.55;;;20.20;55.50;;;;;;5012401;28;20041;-54
2023/02/15 12:47:00;;;;;;;17.63;11.10;;;20.50;54.80;;;;;;5012627;28;20041;-55
2023/02/15 12:49:28;;;;;;;18.13;12.00;;;21.10;54.80;;;;;;5012446;28;20502;-53
2023/02/15 12:52:08;;;;;;;14.73;9.75;;;21.60;53.40;;;;;;5012604;28;20033;-55
2023/02/15 12:54:41;;;;;;;18.70;11.25;;;21.60;52.70;;;;;;5012302;28;20033;-54
2023/02/15 12:57:31;;;;;;;16.55;10.80;;;20.70;55.00;;;;;;5012288;28;20073;-55
2023/02/15 12:59:58;;;;;;;18.92;10.27;;;21.50;53.70;;;;;;5012185;28;20367;-57
2023/02/15 13:02:56;;;;;;;16.70;10.88;;;22.30;51.70;;;;;;5012177;28;20045;-55
2023/02/15 13:05:29;;;;;;;15.85;10.40;;;22.80;50.20;;;;;;5003081;28;20128;-56
2023/02/15 13:08:10;;;;;;;15.90;10.13;;;21.80;51.20;;;;;;5012057;28;20041;-57
2023/02/15 13:10:42;;;;;;;16.67;10.25;;;20.40;54.10;;;;;;4994577;28;20029;-58
2023/02/15 13:13:21;;;;;;;16.85;11.18;;;20.10;54.60;;;;;;5011946;28;20105;-57
2023/02/15 13:15:53;;;;;;;16.35;10.25;;;19.40;55.60;;;;;;5011752;28;20042;-60
2023/02/15 13:18:46;;;;;;;18.67;10.70;;;19.10;57.30;;;;;;5011836;28;20068;-54
2023/02/15 13:21:16;;;;;;;17.77;10.13;;;19.60;56.10;;;;;;5011606;28;20050;-54
2023/02/15 13:23:49;;;;;;;22.73;14.65;;;20.40;55.10;;;;;;5011396;28;20034;-53
2023/02/15 13:26:19;;;;;;;26.02;15.93;;;20.90;53.30;;;;;;5021880;28;20036;-52